createdAt,value
2023-02-25T00:01:13.436Z,2.23
2023-02-25T00:03:40.198Z,2.24
2023-02-25T00:06:07.592Z,2.33
2023-02-25T00:08:34.880Z,2.16
2023-02-25T00:11:02.791Z,2.26
2023-02-25T00:13:29.381Z,2.18
2023-02-25T00:15:58.138Z,2.15
2023-02-25T00:18:25.980Z,2.17
2023-02-25T00:20:52.568Z,2.19
2023-02-25T00:23:19.214Z,2.42
2023-02-25T00:25:46.135Z,2.32
2023-02-25T00:28:12.792Z,2.40
2023-02-25T00:30:40.665Z,2.30
2023-02-25T00:33:07.359Z,2.31
2023-02-25T00:35:34.730Z,2.38
2023-02-25T00:38:15.765Z,2.22
2023-02-25T00:40:45.418Z,2.31
2023-02-25T00:43:12.038Z,2.33
2023-02-25T00:45:40.442Z,2.32
2023-02-25T00:48:07.623Z,2.39
2023-02-25T00:50:35.856Z,2.38
2023-02-25T00:53:02.445Z,2.25
2023-02-25T00:55:33.567Z,2.14
2023-02-25T00:58:01.312Z,1.97
2023-02-25T01:00:28.630Z,1.94
2023-02-25T01:02:56.530Z,1.82
2023-02-25T01:05:23.898Z,1.72
2023-02-25T01:07:50.636Z,1.86
2023-02-25T01:10:17.434Z,2.01
2023-02-25T01:12:43.985Z,1.97
2023-02-25T01:15:11.136Z,1.93
2023-02-25T01:17:37.701Z,1.90
2023-02-25T01:20:11.144Z,1.89
2023-02-25T01:22:40.893Z,1.94
2023-02-25T01:25:11.855Z,1.90
2023-02-25T01:27:38.429Z,1.89
2023-02-25T01:30:06.262Z,1.91
2023-02-25T01:32:33.018Z,1.83
2023-02-25T01:34:59.810Z,1.84
2023-02-25T01:37:26.456Z,1.78
2023-02-25T01:39:53.138Z,1.77
2023-02-25T01:42:19.733Z,1.74
2023-02-25T01:45:17.741Z,1.85
2023-02-25T01:48:09.670Z,1.90
2023-02-25T01:50:40.435Z,1.91
2023-02-25T01:53:08.772Z,1.86
2023-02-25T01:55:35.429Z,1.93
2023-02-25T01:58:02.052Z,2.01
2023-02-25T02:00:29.658Z,1.88
2023-02-25T02:02:56.425Z,1.88
2023-02-25T02:05:26.296Z,1.85
2023-02-25T02:07:52.873Z,1.83
2023-02-25T02:10:19.786Z,1.65
2023-02-25T02:12:46.782Z,1.55
2023-02-25T02:15:14.232Z,1.55
2023-02-25T02:17:53.036Z,1.56
2023-02-25T02:20:21.820Z,1.56
2023-02-25T02:23:06.617Z,1.64
2023-02-25T02:25:44.784Z,1.58
2023-02-25T02:28:36.346Z,1.59
2023-02-25T02:31:40.655Z,1.64
2023-02-25T02:34:32.330Z,1.70
2023-02-25T02:37:10.862Z,1.75
2023-02-25T02:39:52.076Z,1.78
2023-02-25T02:42:31.680Z,1.82
2023-02-25T02:45:10.612Z,1.83
2023-02-25T02:47:38.781Z,1.85
2023-02-25T02:50:10.898Z,1.84
2023-02-25T02:52:46.979Z,1.90
2023-02-25T02:55:26.193Z,1.95
2023-02-25T02:58:30.446Z,1.90
2023-02-25T03:01:09.791Z,1.84
2023-02-25T03:03:38.618Z,1.88
2023-02-25T03:06:14.474Z,1.88
2023-02-25T03:08:47.418Z,1.88
2023-02-25T03:11:14.044Z,1.84
2023-02-25T03:13:40.883Z,1.94
2023-02-25T03:16:10.558Z,1.87
2023-02-25T03:18:42.130Z,1.83
2023-02-25T03:21:13.213Z,1.88
2023-02-25T03:23:41.803Z,1.89
2023-02-25T03:26:30.103Z,1.85
2023-02-25T03:29:01.097Z,1.83
2023-02-25T03:32:06.894Z,1.84
2023-02-25T03:34:37.020Z,1.85
2023-02-25T03:37:06.162Z,1.80
2023-02-25T03:39:36.222Z,1.95
2023-02-25T03:42:03.797Z,1.75
2023-02-25T03:44:33.323Z,1.73
2023-02-25T03:47:00.182Z,1.82
2023-02-25T03:49:33.321Z,1.79
2023-02-25T03:52:01.145Z,1.84
2023-02-25T03:54:27.818Z,1.91
2023-02-25T03:56:54.573Z,1.93
2023-02-25T03:59:26.215Z,1.90
2023-02-25T04:01:52.860Z,1.85
2023-02-25T04:04:19.634Z,1.87
2023-02-25T04:06:47.335Z,1.94
2023-02-25T04:09:14.390Z,1.89
2023-02-25T04:11:41.764Z,1.93
2023-02-25T04:14:08.421Z,1.95
2023-02-25T04:16:35.580Z,1.92
2023-02-25T04:19:03.285Z,1.96
2023-02-25T04:21:35.481Z,1.96
2023-02-25T04:24:03.118Z,2.01
2023-02-25T04:26:29.836Z,2.00
2023-02-25T04:28:56.467Z,2.00
2023-02-25T04:31:23.273Z,2.05
2023-02-25T04:33:50.133Z,1.98
2023-02-25T04:36:28.877Z,1.96
2023-02-25T04:38:55.946Z,1.94
2023-02-25T04:41:23.348Z,1.92
2023-02-25T04:43:49.969Z,1.90
2023-02-25T04:46:16.689Z,1.90
2023-02-25T04:48:43.295Z,1.85
2023-02-25T04:51:09.929Z,1.81
2023-02-25T04:53:36.526Z,1.70
2023-02-25T04:56:04.867Z,1.84
2023-02-25T04:58:32.178Z,1.84
2023-02-25T05:01:02.131Z,1.77
2023-02-25T05:03:29.062Z,1.80
2023-02-25T05:05:55.768Z,1.86
2023-02-25T05:08:22.701Z,1.86
2023-02-25T05:10:49.529Z,1.78
2023-02-25T05:13:16.220Z,1.89
2023-02-25T05:15:42.967Z,1.93
2023-02-25T05:18:09.605Z,1.83
2023-02-25T05:20:41.231Z,1.80
2023-02-25T05:23:08.103Z,1.77
2023-02-25T05:25:35.039Z,1.81
2023-02-25T05:28:01.717Z,1.82
2023-02-25T05:30:28.383Z,1.76
2023-02-25T05:32:55.088Z,1.82
2023-02-25T05:35:21.761Z,1.75
2023-02-25T05:37:48.397Z,1.74
2023-02-25T05:40:15.125Z,1.73
2023-02-25T05:42:41.724Z,1.76
2023-02-25T05:45:09.038Z,1.64
2023-02-25T05:47:35.917Z,1.78
2023-02-25T05:50:02.988Z,1.71
2023-02-25T05:52:29.587Z,1.67
2023-02-25T05:54:56.277Z,1.70
2023-02-25T05:57:23.867Z,1.68
2023-02-25T05:59:50.710Z,1.65
2023-02-25T06:02:17.393Z,1.29
2023-02-25T06:04:44.019Z,0.92
2023-02-25T06:07:10.634Z,0.79
2023-02-25T06:09:37.537Z,0.65
2023-02-25T06:12:04.443Z,0.66
2023-02-25T06:14:31.059Z,0.52
2023-02-25T06:16:57.847Z,0.38
2023-02-25T06:19:26.327Z,0.30
2023-02-25T06:21:54.817Z,0.31
2023-02-25T06:24:22.491Z,0.35
2023-02-25T06:26:49.120Z,0.43
2023-02-25T06:29:15.708Z,0.33
2023-02-25T06:31:43.358Z,0.40
2023-02-25T06:34:10.357Z,0.41
2023-02-25T06:36:37.020Z,0.52
2023-02-25T06:39:05.702Z,0.55
2023-02-25T06:41:32.332Z,0.64
2023-02-25T06:43:58.918Z,0.57
2023-02-25T06:46:26.622Z,0.56
2023-02-25T06:48:53.833Z,0.65
2023-02-25T06:51:20.473Z,0.56
2023-02-25T06:53:47.754Z,0.54
2023-02-25T06:56:15.069Z,0.59
2023-02-25T06:58:41.835Z,0.71
2023-02-25T07:01:13.757Z,0.90
2023-02-25T07:03:40.703Z,0.92
2023-02-25T07:06:08.850Z,1.08
2023-02-25T07:08:35.515Z,0.98
2023-02-25T07:11:17.297Z,0.96
2023-02-25T07:13:44.549Z,1.00
2023-02-25T07:16:12.025Z,1.04
2023-02-25T07:18:39.067Z,1.00
2023-02-25T07:21:05.914Z,0.98
2023-02-25T07:23:32.542Z,1.07
2023-02-25T07:26:03.322Z,1.05
2023-02-25T07:28:29.955Z,0.99
2023-02-25T07:30:56.714Z,1.00
2023-02-25T07:33:23.393Z,1.10
2023-02-25T07:35:49.998Z,1.05
2023-02-25T07:38:16.740Z,0.90
2023-02-25T07:40:43.356Z,0.88
2023-02-25T07:43:09.995Z,0.90
2023-02-25T07:45:36.580Z,1.03
2023-02-25T07:48:03.265Z,1.14
2023-02-25T07:50:29.921Z,1.11
2023-02-25T07:52:56.611Z,1.13
2023-02-25T07:55:23.245Z,0.99
2023-02-25T07:57:49.953Z,1.11
2023-02-25T08:00:17.710Z,0.92
2023-02-25T08:02:44.660Z,0.80
2023-02-25T08:05:11.656Z,0.91
2023-02-25T08:07:38.317Z,0.72
2023-02-25T08:10:05.458Z,0.45
2023-02-25T08:12:32.272Z,0.35
2023-02-25T08:15:01.956Z,0.45
2023-02-25T08:17:32.590Z,0.34
2023-02-25T08:19:59.211Z,0.46
2023-02-25T08:22:25.933Z,0.34
2023-02-25T08:24:52.548Z,0.44
2023-02-25T08:27:19.174Z,0.44
2023-02-25T08:29:45.777Z,0.36
2023-02-25T08:32:12.408Z,0.31
2023-02-25T08:34:39.158Z,0.31
2023-02-25T08:37:05.764Z,0.29
2023-02-25T08:39:35.930Z,0.36
2023-02-25T08:42:02.664Z,0.39
2023-02-25T08:44:29.321Z,0.32
2023-02-25T08:47:01.492Z,0.12
2023-02-25T08:49:29.138Z,0.12
2023-02-25T08:51:55.760Z,0.11
2023-02-25T08:54:22.590Z,0.21
2023-02-25T08:56:52.293Z,0.22
2023-02-25T08:59:18.889Z,0.03
2023-02-25T09:01:45.817Z,0.10
2023-02-25T09:04:20.223Z,0.16
2023-02-25T09:06:49.607Z,0.16
2023-02-25T09:09:16.785Z,0.09
2023-02-25T09:11:43.597Z,0.16
2023-02-25T09:14:10.551Z,0.27
2023-02-25T09:16:37.257Z,0.40
2023-02-25T09:19:03.962Z,0.25
2023-02-25T09:21:30.541Z,0.23
2023-02-25T09:23:58.367Z,0.19
2023-02-25T09:26:25.089Z,0.17
2023-02-25T09:28:51.716Z,0.31
2023-02-25T09:31:18.564Z,0.29
2023-02-25T09:33:45.397Z,0.09
2023-02-25T09:36:16.385Z,0.05
2023-02-25T09:38:43.433Z,0.12
2023-02-25T09:41:24.774Z,0.01
2023-02-25T09:44:10.715Z,-0.14
2023-02-25T09:46:41.402Z,-0.23
2023-02-25T09:49:13.512Z,-0.08
2023-02-25T09:51:48.676Z,-0.13
2023-02-25T09:54:18.266Z,-0.23
2023-02-25T09:56:44.935Z,-0.19
2023-02-25T09:59:15.221Z,-0.33
2023-02-25T10:02:13.223Z,-0.11
2023-02-25T10:04:44.815Z,-0.18
2023-02-25T10:07:19.325Z,-0.09
2023-02-25T10:09:56.305Z,-0.18
2023-02-25T10:12:35.488Z,-0.12
2023-02-25T10:15:39.972Z,-0.25
2023-02-25T10:18:14.476Z,0.09
2023-02-25T10:21:27.458Z,0.00
2023-02-25T10:24:28.409Z,0.15
2023-02-25T10:27:00.255Z,0.37
2023-02-25T10:29:30.134Z,0.12
2023-02-25T10:31:59.812Z,0.20
2023-02-25T10:34:28.957Z,0.16
2023-02-25T10:36:57.454Z,0.25
2023-02-25T10:39:24.606Z,0.53
2023-02-25T10:41:51.331Z,0.44
2023-02-25T10:44:18.159Z,0.12
2023-02-25T10:46:52.965Z,0.02
2023-02-25T10:49:21.721Z,0.16
2023-02-25T10:52:10.310Z,0.28
2023-02-25T10:54:48.008Z,0.14
2023-02-25T10:57:16.342Z,0.32
2023-02-25T10:59:43.505Z,0.19
2023-02-25T11:02:25.631Z,0.03
2023-02-25T11:04:52.729Z,0.18
2023-02-25T11:07:32.703Z,0.48
2023-02-25T11:10:19.609Z,0.16
2023-02-25T11:12:52.466Z,0.29
2023-02-25T11:15:19.977Z,1.01
2023-02-25T11:17:46.575Z,0.57
2023-02-25T11:20:27.324Z,0.28
2023-02-25T11:22:55.279Z,0.65
2023-02-25T11:25:39.735Z,0.60
2023-02-25T11:28:08.149Z,0.42
2023-02-25T11:30:38.575Z,0.54
2023-02-25T11:33:25.711Z,0.40
2023-02-25T11:35:59.954Z,0.26
2023-02-25T11:38:28.738Z,0.55
2023-02-25T11:40:55.482Z,0.39
2023-02-25T11:43:27.310Z,0.27
2023-02-25T11:45:57.503Z,0.21
2023-02-25T11:48:27.652Z,0.21
2023-02-25T11:51:23.325Z,0.13
2023-02-25T11:54:03.006Z,0.55
2023-02-25T11:56:35.802Z,0.57
2023-02-25T11:59:14.521Z,0.58
2023-02-25T12:01:59.392Z,0.40
2023-02-25T12:04:58.220Z,0.75
2023-02-25T12:07:24.648Z,0.58
2023-02-25T12:10:06.171Z,0.26
2023-02-25T12:12:55.555Z,0.16
2023-02-25T12:16:08.016Z,0.43
2023-02-25T12:19:11.852Z,0.06
2023-02-25T12:22:12.752Z,0.50
2023-02-25T12:25:00.384Z,0.58
2023-02-25T12:27:59.077Z,0.64
2023-02-25T12:30:47.308Z,0.63
2023-02-25T12:33:31.876Z,0.56
2023-02-25T12:36:16.445Z,0.49
2023-02-25T12:39:11.186Z,0.64
2023-02-25T12:42:02.987Z,0.47
2023-02-25T12:44:38.844Z,0.77
2023-02-25T12:47:15.462Z,0.89
2023-02-25T12:50:02.252Z,0.64
2023-02-25T12:52:35.433Z,0.55
2023-02-25T12:55:19.354Z,0.95
2023-02-25T12:57:49.952Z,0.86
2023-02-25T13:00:28.511Z,0.78
2023-02-25T13:03:10.049Z,0.59
2023-02-25T13:05:58.542Z,0.72
2023-02-25T13:08:47.465Z,0.77
2023-02-25T13:11:22.783Z,0.55
2023-02-25T13:14:08.517Z,0.67
2023-02-25T13:16:39.172Z,0.61
2023-02-25T13:19:26.062Z,0.70
2023-02-25T13:22:04.743Z,0.74
2023-02-25T13:24:55.691Z,0.76
2023-02-25T13:27:46.308Z,0.58
2023-02-25T13:30:47.255Z,0.64
2023-02-25T13:33:37.187Z,0.70
2023-02-25T13:36:25.071Z,0.66
2023-02-25T13:39:19.418Z,0.45
2023-02-25T13:42:12.652Z,0.31
2023-02-25T13:45:06.563Z,0.28
2023-02-25T13:47:55.091Z,0.37
2023-02-25T13:50:46.861Z,0.00
2023-02-25T13:53:26.180Z,0.18
2023-02-25T13:56:11.661Z,-0.11
2023-02-25T13:59:09.047Z,-0.31
2023-02-25T14:01:57.625Z,-0.25
2023-02-25T14:04:54.515Z,-0.15
2023-02-25T14:07:50.702Z,-0.27
2023-02-25T14:10:17.439Z,-0.08
2023-02-25T14:13:11.425Z,-0.16
2023-02-25T14:15:47.614Z,-0.01
2023-02-25T14:18:35.902Z,-0.05
2023-02-25T14:21:11.576Z,0.24
2023-02-25T14:23:45.827Z,0.27
2023-02-25T14:26:37.796Z,-0.03
2023-02-25T14:29:21.560Z,0.09
2023-02-25T14:32:00.649Z,-0.11
2023-02-25T14:34:30.295Z,-0.05
2023-02-25T14:37:20.186Z,0.06
2023-02-25T14:40:07.687Z,-0.14
2023-02-25T14:42:53.843Z,0.06
2023-02-25T14:45:22.289Z,-0.10
2023-02-25T14:47:57.922Z,0.00
2023-02-25T14:50:30.750Z,0.15
2023-02-25T14:53:01.174Z,0.00
2023-02-25T14:55:42.948Z,0.27
2023-02-25T14:58:35.794Z,0.39
2023-02-25T15:01:23.366Z,0.45
2023-02-25T15:04:11.689Z,0.26
2023-02-25T15:07:19.377Z,0.08
2023-02-25T15:10:23.600Z,0.05
2023-02-25T15:13:23.403Z,0.36
2023-02-25T15:16:14.691Z,0.15
2023-02-25T15:19:00.801Z,0.05
2023-02-25T15:21:45.000Z,-0.24
2023-02-25T15:24:23.650Z,-0.38
2023-02-25T15:26:50.713Z,-0.67
2023-02-25T15:29:21.408Z,-0.81
2023-02-25T15:32:19.179Z,-1.04
2023-02-25T15:35:00.447Z,-0.88
2023-02-25T15:37:37.363Z,-0.80
2023-02-25T15:40:16.134Z,-0.94
2023-02-25T15:42:55.841Z,-1.07
2023-02-25T15:45:28.488Z,-0.91
2023-02-25T15:48:07.093Z,-0.93
2023-02-25T15:50:42.434Z,-0.78
2023-02-25T15:53:09.300Z,-0.80
2023-02-25T15:55:41.046Z,-0.65
2023-02-25T15:58:43.663Z,-0.80
2023-02-25T16:01:40.254Z,-0.67
2023-02-25T16:04:40.364Z,-0.87
2023-02-25T16:07:07.056Z,-0.86
2023-02-25T16:09:33.840Z,-0.94
2023-02-25T16:12:04.985Z,-0.67
2023-02-25T16:14:32.506Z,-0.76
2023-02-25T16:17:00.577Z,-0.60
2023-02-25T16:19:29.792Z,-0.74
2023-02-25T16:22:01.504Z,-0.72
2023-02-25T16:24:28.234Z,-0.84
2023-02-25T16:26:59.063Z,-0.71
2023-02-25T16:29:37.681Z,-0.74
2023-02-25T16:32:17.288Z,-0.89
2023-02-25T16:34:56.063Z,-0.65
2023-02-25T16:37:37.762Z,-0.71
2023-02-25T16:40:05.035Z,-0.76
2023-02-25T16:42:34.578Z,-0.96
2023-02-25T16:45:04.075Z,-1.35
2023-02-25T16:47:32.246Z,-1.79
2023-02-25T16:50:00.168Z,-1.82
2023-02-25T16:52:32.801Z,-1.72
2023-02-25T16:55:01.036Z,-1.92
2023-02-25T16:57:27.769Z,-2.00
2023-02-25T17:00:18.888Z,-1.97
2023-02-25T17:02:47.777Z,-1.92
2023-02-25T17:05:29.122Z,-1.87
2023-02-25T17:08:01.226Z,-1.77
2023-02-25T17:10:37.511Z,-1.72
2023-02-25T17:13:04.380Z,-1.30
2023-02-25T17:15:32.880Z,-1.39
2023-02-25T17:18:07.660Z,-1.38
2023-02-25T17:20:34.333Z,-1.32
2023-02-25T17:23:04.669Z,-1.15
2023-02-25T17:25:37.270Z,-1.01
2023-02-25T17:28:04.111Z,-1.06
2023-02-25T17:30:47.646Z,-0.94
2023-02-25T17:33:24.069Z,-1.15
2023-02-25T17:35:54.559Z,-0.97
2023-02-25T17:38:22.491Z,-1.04
2023-02-25T17:40:49.872Z,-0.99
2023-02-25T17:43:19.008Z,-1.07
2023-02-25T17:45:50.083Z,-1.05
2023-02-25T17:48:18.806Z,-0.90
2023-02-25T17:51:00.624Z,-0.58
2023-02-25T17:53:45.792Z,-0.83
2023-02-25T17:56:18.573Z,-1.10
2023-02-25T17:58:45.229Z,-0.54
2023-02-25T18:01:23.424Z,-1.03
2023-02-25T18:03:55.257Z,-1.15
2023-02-25T18:06:34.611Z,-0.90
2023-02-25T18:09:04.199Z,-0.81
2023-02-25T18:11:32.975Z,-0.96
2023-02-25T18:14:02.310Z,-1.05
2023-02-25T18:16:37.589Z,-0.83
2023-02-25T18:19:22.617Z,-0.97
2023-02-25T18:21:49.238Z,-0.73
2023-02-25T18:24:23.260Z,-0.74
2023-02-25T18:27:24.695Z,-0.84
2023-02-25T18:29:51.452Z,-0.78
2023-02-25T18:32:18.263Z,-0.75
2023-02-25T18:34:45.066Z,-0.98
2023-02-25T18:37:17.378Z,-0.90
2023-02-25T18:39:46.127Z,-0.95
2023-02-25T18:42:16.345Z,-0.89
2023-02-25T18:44:44.768Z,-1.23
2023-02-25T18:47:11.432Z,-1.07
2023-02-25T18:49:40.733Z,-1.33
2023-02-25T18:52:13.567Z,-1.38
2023-02-25T18:54:41.571Z,-1.30
2023-02-25T18:57:23.223Z,-2.05
2023-02-25T18:59:51.390Z,-2.59
2023-02-25T19:02:29.543Z,-2.74
2023-02-25T19:04:56.325Z,-2.77
2023-02-25T19:07:24.905Z,-2.75
2023-02-25T19:09:51.532Z,-2.70
2023-02-25T19:12:18.565Z,-2.82
2023-02-25T19:14:45.655Z,-2.77
2023-02-25T19:17:16.441Z,-2.82
2023-02-25T19:19:46.426Z,-2.70
2023-02-25T19:22:14.824Z,-2.63
2023-02-25T19:24:42.770Z,-2.55
2023-02-25T19:27:23.884Z,-2.51
2023-02-25T19:29:51.700Z,-2.32
2023-02-25T19:32:18.478Z,-2.40
2023-02-25T19:34:45.680Z,-2.37
2023-02-25T19:37:12.485Z,-2.35
2023-02-25T19:39:39.150Z,-2.33
2023-02-25T19:42:06.017Z,-2.17
2023-02-25T19:44:33.288Z,-2.00
2023-02-25T19:46:59.906Z,-2.04
2023-02-25T19:49:26.690Z,-2.08
2023-02-25T19:51:53.342Z,-1.90
2023-02-25T19:54:20.218Z,-1.98
2023-02-25T19:56:47.098Z,-2.05
2023-02-25T19:59:13.930Z,-1.98
2023-02-25T20:01:40.654Z,-1.90
2023-02-25T20:04:07.692Z,-2.04
2023-02-25T20:06:34.826Z,-1.97
2023-02-25T20:09:06.152Z,-1.79
2023-02-25T20:11:33.323Z,-1.51
2023-02-25T20:14:00.915Z,-1.75
2023-02-25T20:16:27.758Z,-1.69
2023-02-25T20:18:57.409Z,-1.71
2023-02-25T20:21:24.990Z,-1.70
2023-02-25T20:23:52.053Z,-1.52
2023-02-25T20:26:20.067Z,-1.39
2023-02-25T20:28:46.935Z,-1.47
2023-02-25T20:31:15.803Z,-1.69
2023-02-25T20:33:42.783Z,-1.45
2023-02-25T20:36:23.410Z,-2.02
2023-02-25T20:38:53.185Z,-1.89
2023-02-25T20:41:20.048Z,-2.04
2023-02-25T20:43:46.675Z,-1.65
2023-02-25T20:46:23.617Z,-1.15
2023-02-25T20:48:50.726Z,-1.14
2023-02-25T20:51:17.606Z,-1.60
2023-02-25T20:53:44.510Z,-1.57
2023-02-25T20:56:16.374Z,-1.48
2023-02-25T20:58:43.058Z,-1.23
2023-02-25T21:01:09.900Z,-1.36
2023-02-25T21:03:36.544Z,-1.66
2023-02-25T21:06:03.206Z,-1.37
2023-02-25T21:08:29.891Z,-1.05
2023-02-25T21:10:59.254Z,-1.20
2023-02-25T21:13:25.865Z,-1.52
2023-02-25T21:15:57.476Z,-1.56
2023-02-25T21:18:24.068Z,-1.33
2023-02-25T21:20:59.440Z,-1.96
2023-02-25T21:23:27.083Z,-1.56
2023-02-25T21:25:57.436Z,-1.58
2023-02-25T21:28:24.427Z,-1.47
2023-02-25T21:30:51.116Z,-1.48
2023-02-25T21:33:17.951Z,-1.33
2023-02-25T21:35:45.651Z,-1.61
2023-02-25T21:38:14.354Z,-1.65
2023-02-25T21:40:42.130Z,-1.93
2023-02-25T21:43:08.729Z,-1.71
2023-02-25T21:45:35.355Z,-1.70
2023-02-25T21:48:01.949Z,-1.69
2023-02-25T21:50:28.562Z,-1.38
2023-02-25T21:52:55.154Z,-1.59
2023-02-25T21:55:21.943Z,-1.84
2023-02-25T21:57:48.658Z,-1.43
2023-02-25T22:00:15.776Z,-1.42
2023-02-25T22:02:42.410Z,-2.10
2023-02-25T22:05:09.225Z,-1.81
2023-02-25T22:07:36.168Z,-1.79
2023-02-25T22:10:02.795Z,-1.67
2023-02-25T22:12:29.877Z,-1.91
2023-02-25T22:14:56.549Z,-1.90
2023-02-25T22:17:23.186Z,-1.89
2023-02-25T22:19:49.817Z,-1.89
2023-02-25T22:22:16.718Z,-1.98
2023-02-25T22:24:43.373Z,-1.96
2023-02-25T22:27:10.359Z,-2.06
2023-02-25T22:29:36.972Z,-2.23
2023-02-25T22:32:03.648Z,-2.00
2023-02-25T22:34:30.290Z,-1.99
2023-02-25T22:36:57.006Z,-1.82
2023-02-25T22:39:23.664Z,-2.01
2023-02-25T22:41:50.326Z,-2.04
2023-02-25T22:44:17.055Z,-1.89
2023-02-25T22:46:43.893Z,-1.88
2023-02-25T22:49:11.055Z,-2.11
2023-02-25T22:51:42.694Z,-1.99
2023-02-25T22:54:10.157Z,-1.95
2023-02-25T22:56:36.784Z,-1.92
2023-02-25T22:59:03.436Z,-1.93
2023-02-25T23:01:30.141Z,-1.95
2023-02-25T23:03:56.768Z,-1.84
2023-02-25T23:06:34.182Z,-1.78
2023-02-25T23:09:07.657Z,-1.84
2023-02-25T23:11:37.113Z,-2.08
2023-02-25T23:14:03.807Z,-2.16
2023-02-25T23:16:33.493Z,-2.35
2023-02-25T23:19:02.142Z,-2.39
2023-02-25T23:21:29.346Z,-2.17
2023-02-25T23:23:57.195Z,-2.15
2023-02-25T23:26:28.786Z,-1.93
2023-02-25T23:28:56.232Z,-2.20
2023-02-25T23:31:36.913Z,-2.08
2023-02-25T23:34:11.272Z,-2.39
2023-02-25T23:36:38.550Z,-2.53
2023-02-25T23:39:05.884Z,-2.27
2023-02-25T23:41:34.010Z,-1.95
2023-02-25T23:44:01.705Z,-2.24
2023-02-25T23:46:29.799Z,-2.37
2023-02-25T23:48:57.660Z,-2.33
2023-02-25T23:51:24.500Z,-2.14
2023-02-25T23:53:54.733Z,-1.98
2023-02-25T23:56:21.549Z,-2.37
2023-02-25T23:58:51.193Z,-1.99
